sensor_id;sensor_type;location;lat;lon;timestamp;P1;durP1;ratioP1;P2;durP2;ratioP2
71046;SDS011;58703;48.978;8.982;2024-03-22T00:01:44;6.32;;;4.68;;
71046;SDS011;58703;48.978;8.982;2024-03-22T00:04:10;9.10;;;4.88;;
71046;SDS011;58703;48.978;8.982;2024-03-22T00:06:37;6.95;;;5.40;;
71046;SDS011;58703;48.978;8.982;2024-03-22T00:09:02;8.80;;;5.40;;
71046;SDS011;58703;48.978;8.982;2024-03-22T00:11:28;8.20;;;4.13;;
71046;SDS011;58703;48.978;8.982;2024-03-22T00:13:54;7.45;;;4.25;;
71046;SDS011;58703;48.978;8.982;2024-03-22T00:16:19;7.30;;;4.67;;
71046;SDS011;58703;48.978;8.982;2024-03-22T00:18:45;9.00;;;4.40;;
71046;SDS011;58703;48.978;8.982;2024-03-22T00:21:10;6.03;;;3.95;;
71046;SDS011;58703;48.978;8.982;2024-03-22T00:23:36;5.90;;;4.30;;
71046;SDS011;58703;48.978;8.982;2024-03-22T00:26:01;6.60;;;3.70;;
71046;SDS011;58703;48.978;8.982;2024-03-22T00:28:27;4.70;;;4.00;;
71046;SDS011;58703;48.978;8.982;2024-03-22T00:30:52;7.73;;;4.60;;
71046;SDS011;58703;48.978;8.982;2024-03-22T00:33:17;7.90;;;4.57;;
71046;SDS011;58703;48.978;8.982;2024-03-22T00:35:43;8.03;;;4.63;;
71046;SDS011;58703;48.978;8.982;2024-03-22T00:38:09;12.07;;;5.78;;
71046;SDS011;58703;48.978;8.982;2024-03-22T00:40:34;10.43;;;5.50;;
71046;SDS011;58703;48.978;8.982;2024-03-22T00:43:00;6.97;;;4.63;;
71046;SDS011;58703;48.978;8.982;2024-03-22T00:45:25;9.50;;;4.85;;
71046;SDS011;58703;48.978;8.982;2024-03-22T00:47:51;8.37;;;4.70;;
71046;SDS011;58703;48.978;8.982;2024-03-22T00:50:16;6.13;;;4.78;;
71046;SDS011;58703;48.978;8.982;2024-03-22T00:52:42;7.37;;;4.10;;
71046;SDS011;58703;48.978;8.982;2024-03-22T00:55:08;5.30;;;3.13;;
71046;SDS011;58703;48.978;8.982;2024-03-22T00:57:33;4.93;;;3.53;;
71046;SDS011;58703;48.978;8.982;2024-03-22T00:59:59;6.67;;;3.57;;
71046;SDS011;58703;48.978;8.982;2024-03-22T01:02:25;5.57;;;3.42;;
71046;SDS011;58703;48.978;8.982;2024-03-22T01:04:50;4.53;;;3.17;;
71046;SDS011;58703;48.978;8.982;2024-03-22T01:07:16;7.38;;;3.67;;
71046;SDS011;58703;48.978;8.982;2024-03-22T01:09:42;16.17;;;7.33;;
71046;SDS011;58703;48.978;8.982;2024-03-22T01:12:09;6.20;;;4.05;;
71046;SDS011;58703;48.978;8.982;2024-03-22T01:14:35;7.25;;;4.10;;
71046;SDS011;58703;48.978;8.982;2024-03-22T01:17:01;5.80;;;3.78;;
71046;SDS011;58703;48.978;8.982;2024-03-22T01:19:27;3.97;;;2.90;;
71046;SDS011;58703;48.978;8.982;2024-03-22T01:21:53;5.78;;;3.25;;
71046;SDS011;58703;48.978;8.982;2024-03-22T01:24:18;5.33;;;3.60;;
71046;SDS011;58703;48.978;8.982;2024-03-22T01:26:44;5.88;;;2.75;;
71046;SDS011;58703;48.978;8.982;2024-03-22T01:29:09;7.87;;;3.67;;
71046;SDS011;58703;48.978;8.982;2024-03-22T01:31:35;10.20;;;3.73;;
71046;SDS011;58703;48.978;8.982;2024-03-22T01:34:01;5.50;;;3.58;;
71046;SDS011;58703;48.978;8.982;2024-03-22T01:36:26;4.70;;;3.80;;
71046;SDS011;58703;48.978;8.982;2024-03-22T01:38:52;7.60;;;3.37;;
71046;SDS011;58703;48.978;8.982;2024-03-22T01:41:17;4.75;;;3.40;;
71046;SDS011;58703;48.978;8.982;2024-03-22T01:43:43;6.10;;;3.97;;
71046;SDS011;58703;48.978;8.982;2024-03-22T01:46:08;4.80;;;3.78;;
71046;SDS011;58703;48.978;8.982;2024-03-22T01:48:34;6.63;;;4.30;;
71046;SDS011;58703;48.978;8.982;2024-03-22T01:51:00;6.77;;;3.93;;
71046;SDS011;58703;48.978;8.982;2024-03-22T01:53:27;6.07;;;3.95;;
71046;SDS011;58703;48.978;8.982;2024-03-22T01:55:52;9.77;;;3.92;;
71046;SDS011;58703;48.978;8.982;2024-03-22T01:58:18;9.63;;;5.03;;
71046;SDS011;58703;48.978;8.982;2024-03-22T02:00:44;8.57;;;5.20;;
71046;SDS011;58703;48.978;8.982;2024-03-22T02:03:09;8.80;;;5.13;;
71046;SDS011;58703;48.978;8.982;2024-03-22T02:05:35;10.50;;;5.17;;
71046;SDS011;58703;48.978;8.982;2024-03-22T02:08:00;6.35;;;3.95;;
71046;SDS011;58703;48.978;8.982;2024-03-22T02:10:26;6.90;;;4.17;;
71046;SDS011;58703;48.978;8.982;2024-03-22T02:12:52;10.73;;;5.07;;
71046;SDS011;58703;48.978;8.982;2024-03-22T02:15:17;5.78;;;4.18;;
71046;SDS011;58703;48.978;8.982;2024-03-22T02:17:43;5.77;;;3.47;;
71046;SDS011;58703;48.978;8.982;2024-03-22T02:20:08;6.40;;;3.43;;
71046;SDS011;58703;48.978;8.982;2024-03-22T02:22:35;5.45;;;3.20;;
71046;SDS011;58703;48.978;8.982;2024-03-22T02:25:01;4.80;;;3.67;;
71046;SDS011;58703;48.978;8.982;2024-03-22T02:27:26;7.20;;;3.83;;
71046;SDS011;58703;48.978;8.982;2024-03-22T02:29:52;5.20;;;3.60;;
71046;SDS011;58703;48.978;8.982;2024-03-22T02:32:17;4.88;;;3.47;;
71046;SDS011;58703;48.978;8.982;2024-03-22T02:34:43;7.00;;;4.17;;
71046;SDS011;58703;48.978;8.982;2024-03-22T02:37:09;6.53;;;4.55;;
71046;SDS011;58703;48.978;8.982;2024-03-22T02:39:34;8.03;;;4.43;;
71046;SDS011;58703;48.978;8.982;2024-03-22T02:42:00;9.07;;;4.50;;
71046;SDS011;58703;48.978;8.982;2024-03-22T02:44:25;8.30;;;4.80;;
71046;SDS011;58703;48.978;8.982;2024-03-22T02:46:51;7.13;;;4.40;;
71046;SDS011;58703;48.978;8.982;2024-03-22T02:49:16;7.20;;;4.07;;
71046;SDS011;58703;48.978;8.982;2024-03-22T02:51:42;6.82;;;4.68;;
71046;SDS011;58703;48.978;8.982;2024-03-22T02:54:07;7.20;;;4.87;;
71046;SDS011;58703;48.978;8.982;2024-03-22T02:56:33;8.73;;;4.47;;
71046;SDS011;58703;48.978;8.982;2024-03-22T02:58:58;6.97;;;4.65;;
71046;SDS011;58703;48.978;8.982;2024-03-22T03:01:24;9.67;;;4.87;;
71046;SDS011;58703;48.978;8.982;2024-03-22T03:03:50;7.20;;;5.00;;
71046;SDS011;58703;48.978;8.982;2024-03-22T03:06:15;10.23;;;5.05;;
71046;SDS011;58703;48.978;8.982;2024-03-22T03:08:42;8.07;;;5.57;;
71046;SDS011;58703;48.978;8.982;2024-03-22T03:11:07;8.10;;;4.40;;
71046;SDS011;58703;48.978;8.982;2024-03-22T03:13:33;8.07;;;4.97;;
71046;SDS011;58703;48.978;8.982;2024-03-22T03:15:58;6.95;;;4.25;;
71046;SDS011;58703;48.978;8.982;2024-03-22T03:18:24;7.70;;;4.03;;
71046;SDS011;58703;48.978;8.982;2024-03-22T03:20:49;4.63;;;3.47;;
71046;SDS011;58703;48.978;8.982;2024-03-22T03:23:15;7.45;;;3.88;;
71046;SDS011;58703;48.978;8.982;2024-03-22T03:25:41;7.90;;;3.83;;
71046;SDS011;58703;48.978;8.982;2024-03-22T03:28:06;5.73;;;3.73;;
71046;SDS011;58703;48.978;8.982;2024-03-22T03:33:07;4.25;;;2.97;;
71046;SDS011;58703;48.978;8.982;2024-03-22T03:35:33;5.07;;;3.50;;
71046;SDS011;58703;48.978;8.982;2024-03-22T03:37:59;10.50;;;3.88;;
71046;SDS011;58703;48.978;8.982;2024-03-22T03:40:24;4.97;;;3.37;;
71046;SDS011;58703;48.978;8.982;2024-03-22T03:42:50;6.55;;;3.75;;
71046;SDS011;58703;48.978;8.982;2024-03-22T03:45:16;5.00;;;3.27;;
71046;SDS011;58703;48.978;8.982;2024-03-22T03:47:42;4.75;;;3.30;;
71046;SDS011;58703;48.978;8.982;2024-03-22T03:50:07;5.17;;;2.87;;
71046;SDS011;58703;48.978;8.982;2024-03-22T03:52:33;6.45;;;3.47;;
71046;SDS011;58703;48.978;8.982;2024-03-22T03:54:59;5.73;;;3.40;;
71046;SDS011;58703;48.978;8.982;2024-03-22T03:57:24;6.43;;;3.58;;
71046;SDS011;58703;48.978;8.982;2024-03-22T03:59:50;6.37;;;4.23;;
71046;SDS011;58703;48.978;8.982;2024-03-22T04:02:15;8.43;;;3.97;;
71046;SDS011;58703;48.978;8.982;2024-03-22T04:04:41;6.05;;;3.95;;
71046;SDS011;58703;48.978;8.982;2024-03-22T04:07:06;7.53;;;4.60;;
71046;SDS011;58703;48.978;8.982;2024-03-22T04:09:32;7.77;;;4.97;;
71046;SDS011;58703;48.978;8.982;2024-03-22T04:11:58;6.35;;;3.90;;
71046;SDS011;58703;48.978;8.982;2024-03-22T04:14:24;7.03;;;4.15;;
71046;SDS011;58703;48.978;8.982;2024-03-22T04:16:50;5.82;;;4.07;;
71046;SDS011;58703;48.978;8.982;2024-03-22T04:19:16;6.97;;;4.17;;
71046;SDS011;58703;48.978;8.982;2024-03-22T04:21:42;5.88;;;3.75;;
71046;SDS011;58703;48.978;8.982;2024-03-22T04:24:08;7.50;;;4.23;;
71046;SDS011;58703;48.978;8.982;2024-03-22T04:26:33;5.72;;;3.55;;
71046;SDS011;58703;48.978;8.982;2024-03-22T04:28:59;7.70;;;3.73;;
71046;SDS011;58703;48.978;8.982;2024-03-22T04:31:24;5.83;;;3.57;;
71046;SDS011;58703;48.978;8.982;2024-03-22T04:33:50;6.55;;;3.88;;
71046;SDS011;58703;48.978;8.982;2024-03-22T04:36:15;8.43;;;3.63;;
71046;SDS011;58703;48.978;8.982;2024-03-22T04:38:41;5.15;;;3.50;;
71046;SDS011;58703;48.978;8.982;2024-03-22T04:41:07;6.40;;;4.45;;
71046;SDS011;58703;48.978;8.982;2024-03-22T04:43:32;9.17;;;4.87;;
71046;SDS011;58703;48.978;8.982;2024-03-22T04:45:58;9.45;;;5.35;;
71046;SDS011;58703;48.978;8.982;2024-03-22T04:48:24;8.13;;;5.10;;
71046;SDS011;58703;48.978;8.982;2024-03-22T04:50:50;8.50;;;4.45;;
71046;SDS011;58703;48.978;8.982;2024-03-22T04:53:17;10.50;;;5.90;;
71046;SDS011;58703;48.978;8.982;2024-03-22T04:55:43;6.80;;;4.70;;
71046;SDS011;58703;48.978;8.982;2024-03-22T04:58:16;8.32;;;5.03;;
71046;SDS011;58703;48.978;8.982;2024-03-22T05:00:43;6.95;;;4.57;;
71046;SDS011;58703;48.978;8.982;2024-03-22T05:03:09;6.13;;;3.60;;
71046;SDS011;58703;48.978;8.982;2024-03-22T05:05:35;5.03;;;3.40;;
71046;SDS011;58703;48.978;8.982;2024-03-22T05:08:01;7.00;;;3.95;;
71046;SDS011;58703;48.978;8.982;2024-03-22T05:10:27;4.43;;;3.17;;
71046;SDS011;58703;48.978;8.982;2024-03-22T05:12:54;4.78;;;3.53;;
71046;SDS011;58703;48.978;8.982;2024-03-22T05:15:20;7.55;;;4.22;;
71046;SDS011;58703;48.978;8.982;2024-03-22T05:17:46;8.70;;;3.87;;
71046;SDS011;58703;48.978;8.982;2024-03-22T05:20:11;7.50;;;4.03;;
71046;SDS011;58703;48.978;8.982;2024-03-22T05:22:37;7.20;;;4.47;;
71046;SDS011;58703;48.978;8.982;2024-03-22T05:25:03;9.30;;;5.38;;
71046;SDS011;58703;48.978;8.982;2024-03-22T05:27:30;8.40;;;5.28;;
71046;SDS011;58703;48.978;8.982;2024-03-22T05:29:56;9.50;;;4.67;;
71046;SDS011;58703;48.978;8.982;2024-03-22T05:32:22;6.15;;;4.10;;
71046;SDS011;58703;48.978;8.982;2024-03-22T05:34:47;5.33;;;3.60;;
71046;SDS011;58703;48.978;8.982;2024-03-22T05:37:13;11.77;;;6.30;;
71046;SDS011;58703;48.978;8.982;2024-03-22T05:39:39;40.55;;;24.17;;
71046;SDS011;58703;48.978;8.982;2024-03-22T05:42:05;36.85;;;21.67;;
71046;SDS011;58703;48.978;8.982;2024-03-22T05:44:31;31.13;;;18.23;;
71046;SDS011;58703;48.978;8.982;2024-03-22T05:46:57;21.65;;;13.30;;
71046;SDS011;58703;48.978;8.982;2024-03-22T05:49:23;20.37;;;11.20;;
71046;SDS011;58703;48.978;8.982;2024-03-22T05:51:48;16.35;;;9.80;;
71046;SDS011;58703;48.978;8.982;2024-03-22T05:54:14;16.83;;;8.60;;
71046;SDS011;58703;48.978;8.982;2024-03-22T05:56:39;17.83;;;9.35;;
71046;SDS011;58703;48.978;8.982;2024-03-22T05:59:05;10.07;;;6.37;;
71046;SDS011;58703;48.978;8.982;2024-03-22T06:01:31;15.10;;;7.50;;
71046;SDS011;58703;48.978;8.982;2024-03-22T06:03:57;17.43;;;9.57;;
71046;SDS011;58703;48.978;8.982;2024-03-22T06:06:23;12.40;;;7.95;;
71046;SDS011;58703;48.978;8.982;2024-03-22T06:08:53;18.63;;;9.45;;
71046;SDS011;58703;48.978;8.982;2024-03-22T06:11:20;17.08;;;10.52;;
71046;SDS011;58703;48.978;8.982;2024-03-22T06:13:49;12.40;;;7.90;;
71046;SDS011;58703;48.978;8.982;2024-03-22T06:16:14;12.88;;;8.10;;
71046;SDS011;58703;48.978;8.982;2024-03-22T06:18:40;12.83;;;8.20;;
71046;SDS011;58703;48.978;8.982;2024-03-22T06:21:06;14.48;;;8.23;;
71046;SDS011;58703;48.978;8.982;2024-03-22T06:23:32;14.50;;;8.77;;
71046;SDS011;58703;48.978;8.982;2024-03-22T06:25:58;14.73;;;8.80;;
71046;SDS011;58703;48.978;8.982;2024-03-22T06:28:25;12.60;;;8.18;;
71046;SDS011;58703;48.978;8.982;2024-03-22T06:30:53;8.75;;;6.65;;
71046;SDS011;58703;48.978;8.982;2024-03-22T06:33:19;10.18;;;6.57;;
71046;SDS011;58703;48.978;8.982;2024-03-22T06:35:45;11.87;;;7.83;;
71046;SDS011;58703;48.978;8.982;2024-03-22T06:38:11;10.50;;;7.03;;
71046;SDS011;58703;48.978;8.982;2024-03-22T06:40:37;13.60;;;6.57;;
71046;SDS011;58703;48.978;8.982;2024-03-22T06:43:02;11.87;;;7.03;;
71046;SDS011;58703;48.978;8.982;2024-03-22T06:45:28;11.10;;;6.40;;
71046;SDS011;58703;48.978;8.982;2024-03-22T06:47:54;10.52;;;6.28;;
71046;SDS011;58703;48.978;8.982;2024-03-22T06:50:20;12.93;;;7.07;;
71046;SDS011;58703;48.978;8.982;2024-03-22T06:52:55;12.52;;;7.28;;
71046;SDS011;58703;48.978;8.982;2024-03-22T06:55:21;9.90;;;6.63;;
71046;SDS011;58703;48.978;8.982;2024-03-22T06:57:47;9.45;;;7.03;;
71046;SDS011;58703;48.978;8.982;2024-03-22T07:00:13;13.05;;;7.15;;
71046;SDS011;58703;48.978;8.982;2024-03-22T07:02:40;10.40;;;6.47;;
71046;SDS011;58703;48.978;8.982;2024-03-22T07:05:06;9.63;;;6.22;;
71046;SDS011;58703;48.978;8.982;2024-03-22T07:07:32;8.38;;;6.25;;
71046;SDS011;58703;48.978;8.982;2024-03-22T07:09:58;15.00;;;6.93;;
71046;SDS011;58703;48.978;8.982;2024-03-22T07:12:23;10.65;;;6.75;;
71046;SDS011;58703;48.978;8.982;2024-03-22T07:14:50;12.25;;;6.50;;
71046;SDS011;58703;48.978;8.982;2024-03-22T07:17:15;13.37;;;9.00;;
71046;SDS011;58703;48.978;8.982;2024-03-22T07:19:41;11.45;;;7.70;;
71046;SDS011;58703;48.978;8.982;2024-03-22T07:22:08;11.38;;;7.72;;
71046;SDS011;58703;48.978;8.982;2024-03-22T07:24:33;13.40;;;8.45;;
71046;SDS011;58703;48.978;8.982;2024-03-22T07:26:59;12.30;;;8.57;;
71046;SDS011;58703;48.978;8.982;2024-03-22T07:29:24;16.83;;;9.33;;
71046;SDS011;58703;48.978;8.982;2024-03-22T07:31:50;18.42;;;10.32;;
71046;SDS011;58703;48.978;8.982;2024-03-22T07:34:16;20.13;;;11.47;;
71046;SDS011;58703;48.978;8.982;2024-03-22T07:36:41;16.73;;;9.47;;
71046;SDS011;58703;48.978;8.982;2024-03-22T07:39:07;14.45;;;8.55;;
71046;SDS011;58703;48.978;8.982;2024-03-22T07:41:33;13.97;;;9.50;;
71046;SDS011;58703;48.978;8.982;2024-03-22T07:43:59;13.90;;;8.80;;
71046;SDS011;58703;48.978;8.982;2024-03-22T07:46:25;15.90;;;8.07;;
71046;SDS011;58703;48.978;8.982;2024-03-22T07:48:51;12.98;;;8.10;;
71046;SDS011;58703;48.978;8.982;2024-03-22T07:51:17;11.43;;;7.55;;
71046;SDS011;58703;48.978;8.982;2024-03-22T07:53:43;13.40;;;7.10;;
71046;SDS011;58703;48.978;8.982;2024-03-22T07:56:09;11.13;;;7.28;;
71046;SDS011;58703;48.978;8.982;2024-03-22T07:58:34;10.57;;;7.30;;
71046;SDS011;58703;48.978;8.982;2024-03-22T08:01:00;13.27;;;7.80;;
71046;SDS011;58703;48.978;8.982;2024-03-22T08:03:26;11.05;;;7.25;;
71046;SDS011;58703;48.978;8.982;2024-03-22T08:05:51;15.00;;;8.27;;
71046;SDS011;58703;48.978;8.982;2024-03-22T08:08:17;10.77;;;7.70;;
71046;SDS011;58703;48.978;8.982;2024-03-22T08:10:43;12.50;;;7.70;;
71046;SDS011;58703;48.978;8.982;2024-03-22T08:13:08;13.10;;;8.07;;
71046;SDS011;58703;48.978;8.982;2024-03-22T08:15:34;13.40;;;7.67;;
71046;SDS011;58703;48.978;8.982;2024-03-22T08:18:01;12.90;;;8.38;;
71046;SDS011;58703;48.978;8.982;2024-03-22T08:20:26;10.47;;;7.70;;
71046;SDS011;58703;48.978;8.982;2024-03-22T08:22:53;12.10;;;7.72;;
71046;SDS011;58703;48.978;8.982;2024-03-22T08:25:19;13.35;;;8.45;;
71046;SDS011;58703;48.978;8.982;2024-03-22T08:27:46;12.63;;;7.43;;
71046;SDS011;58703;48.978;8.982;2024-03-22T08:30:12;11.07;;;7.43;;
71046;SDS011;58703;48.978;8.982;2024-03-22T08:32:38;9.35;;;7.05;;
71046;SDS011;58703;48.978;8.982;2024-03-22T08:35:04;14.27;;;7.07;;
71046;SDS011;58703;48.978;8.982;2024-03-22T08:37:30;8.63;;;6.60;;
71046;SDS011;58703;48.978;8.982;2024-03-22T08:39:57;7.93;;;6.25;;
71046;SDS011;58703;48.978;8.982;2024-03-22T08:42:22;9.90;;;5.47;;
71046;SDS011;58703;48.978;8.982;2024-03-22T08:44:48;8.27;;;6.18;;
71046;SDS011;58703;48.978;8.982;2024-03-22T08:47:14;9.83;;;5.30;;
71046;SDS011;58703;48.978;8.982;2024-03-22T08:49:39;8.80;;;5.65;;
71046;SDS011;58703;48.978;8.982;2024-03-22T08:52:06;9.93;;;6.17;;
71046;SDS011;58703;48.978;8.982;2024-03-22T08:54:32;6.68;;;5.50;;
71046;SDS011;58703;48.978;8.982;2024-03-22T08:56:58;7.83;;;5.80;;
71046;SDS011;58703;48.978;8.982;2024-03-22T08:59:23;6.45;;;5.25;;
71046;SDS011;58703;48.978;8.982;2024-03-22T09:01:49;7.68;;;5.38;;
71046;SDS011;58703;48.978;8.982;2024-03-22T09:04:15;7.17;;;5.03;;
71046;SDS011;58703;48.978;8.982;2024-03-22T09:06:41;10.03;;;5.43;;
71046;SDS011;58703;48.978;8.982;2024-03-22T09:09:06;8.03;;;5.63;;
71046;SDS011;58703;48.978;8.982;2024-03-22T09:11:33;7.72;;;4.60;;
71046;SDS011;58703;48.978;8.982;2024-03-22T09:13:59;7.70;;;5.20;;
71046;SDS011;58703;48.978;8.982;2024-03-22T09:16:24;7.95;;;6.18;;
71046;SDS011;58703;48.978;8.982;2024-03-22T09:18:50;8.23;;;5.23;;
71046;SDS011;58703;48.978;8.982;2024-03-22T09:21:16;9.77;;;5.30;;
71046;SDS011;58703;48.978;8.982;2024-03-22T09:23:41;8.47;;;5.03;;
71046;SDS011;58703;48.978;8.982;2024-03-22T09:26:07;6.63;;;4.90;;
71046;SDS011;58703;48.978;8.982;2024-03-22T09:28:32;8.43;;;4.93;;
71046;SDS011;58703;48.978;8.982;2024-03-22T09:31:02;5.67;;;4.57;;
71046;SDS011;58703;48.978;8.982;2024-03-22T09:33:35;7.18;;;4.60;;
71046;SDS011;58703;48.978;8.982;2024-03-22T09:36:01;5.90;;;5.07;;
71046;SDS011;58703;48.978;8.982;2024-03-22T09:38:27;6.70;;;5.35;;
71046;SDS011;58703;48.978;8.982;2024-03-22T09:40:55;5.53;;;4.37;;
71046;SDS011;58703;48.978;8.982;2024-03-22T09:43:21;9.30;;;4.63;;
71046;SDS011;58703;48.978;8.982;2024-03-22T09:45:49;6.90;;;5.07;;
71046;SDS011;58703;48.978;8.982;2024-03-22T09:48:18;6.67;;;4.50;;
71046;SDS011;58703;48.978;8.982;2024-03-22T09:50:46;6.97;;;4.68;;
71046;SDS011;58703;48.978;8.982;2024-03-22T09:53:18;11.30;;;5.35;;
71046;SDS011;58703;48.978;8.982;2024-03-22T09:55:48;6.22;;;4.25;;
71046;SDS011;58703;48.978;8.982;2024-03-22T09:58:14;8.82;;;4.72;;
71046;SDS011;58703;48.978;8.982;2024-03-22T10:00:42;17.17;;;4.87;;
71046;SDS011;58703;48.978;8.982;2024-03-22T10:03:07;8.65;;;4.70;;
71046;SDS011;58703;48.978;8.982;2024-03-22T10:05:34;7.30;;;4.25;;
71046;SDS011;58703;48.978;8.982;2024-03-22T10:08:00;5.67;;;4.03;;
71046;SDS011;58703;48.978;8.982;2024-03-22T10:10:26;5.15;;;3.80;;
71046;SDS011;58703;48.978;8.982;2024-03-22T10:12:52;4.80;;;4.10;;
71046;SDS011;58703;48.978;8.982;2024-03-22T10:15:20;8.13;;;4.40;;
71046;SDS011;58703;48.978;8.982;2024-03-22T10:17:46;7.78;;;4.45;;
71046;SDS011;58703;48.978;8.982;2024-03-22T10:20:14;5.93;;;3.70;;
71046;SDS011;58703;48.978;8.982;2024-03-22T10:22:47;7.07;;;3.80;;
71046;SDS011;58703;48.978;8.982;2024-03-22T10:25:14;6.50;;;3.47;;
71046;SDS011;58703;48.978;8.982;2024-03-22T10:27:40;6.57;;;3.13;;
71046;SDS011;58703;48.978;8.982;2024-03-22T10:30:08;5.05;;;4.00;;
71046;SDS011;58703;48.978;8.982;2024-03-22T10:32:35;4.97;;;3.00;;
71046;SDS011;58703;48.978;8.982;2024-03-22T10:35:02;6.05;;;3.65;;
71046;SDS011;58703;48.978;8.982;2024-03-22T10:37:31;6.25;;;3.38;;
71046;SDS011;58703;48.978;8.982;2024-03-22T10:40:03;4.55;;;3.08;;
71046;SDS011;58703;48.978;8.982;2024-03-22T10:42:39;6.70;;;2.97;;
71046;SDS011;58703;48.978;8.982;2024-03-22T10:45:07;4.20;;;2.80;;
71046;SDS011;58703;48.978;8.982;2024-03-22T10:47:34;4.60;;;2.85;;
71046;SDS011;58703;48.978;8.982;2024-03-22T10:50:05;4.43;;;2.47;;
71046;SDS011;58703;48.978;8.982;2024-03-22T10:52:51;4.30;;;2.65;;
71046;SDS011;58703;48.978;8.982;2024-03-22T10:55:24;3.97;;;2.85;;
71046;SDS011;58703;48.978;8.982;2024-03-22T10:57:56;3.77;;;2.07;;
71046;SDS011;58703;48.978;8.982;2024-03-22T11:00:29;3.25;;;2.55;;
71046;SDS011;58703;48.978;8.982;2024-03-22T11:02:56;5.75;;;2.85;;
71046;SDS011;58703;48.978;8.982;2024-03-22T11:05:21;4.50;;;2.70;;
71046;SDS011;58703;48.978;8.982;2024-03-22T11:07:47;6.57;;;2.93;;
71046;SDS011;58703;48.978;8.982;2024-03-22T11:10:25;4.68;;;3.13;;
71046;SDS011;58703;48.978;8.982;2024-03-22T11:13:00;5.43;;;3.03;;
71046;SDS011;58703;48.978;8.982;2024-03-22T11:15:28;4.28;;;3.50;;
71046;SDS011;58703;48.978;8.982;2024-03-22T11:17:54;4.00;;;3.00;;
71046;SDS011;58703;48.978;8.982;2024-03-22T11:20:20;5.93;;;3.20;;
71046;SDS011;58703;48.978;8.982;2024-03-22T11:22:45;5.77;;;3.03;;
71046;SDS011;58703;48.978;8.982;2024-03-22T11:25:11;3.58;;;2.80;;
71046;SDS011;58703;48.978;8.982;2024-03-22T11:27:37;4.90;;;2.77;;
71046;SDS011;58703;48.978;8.982;2024-03-22T11:30:02;4.70;;;3.50;;
71046;SDS011;58703;48.978;8.982;2024-03-22T11:32:29;4.18;;;2.95;;
71046;SDS011;58703;48.978;8.982;2024-03-22T11:34:55;6.63;;;2.83;;
71046;SDS011;58703;48.978;8.982;2024-03-22T11:37:22;7.05;;;2.85;;
71046;SDS011;58703;48.978;8.982;2024-03-22T11:39:48;3.00;;;2.50;;
71046;SDS011;58703;48.978;8.982;2024-03-22T11:42:14;5.67;;;2.47;;
71046;SDS011;58703;48.978;8.982;2024-03-22T11:44:40;3.67;;;2.40;;
71046;SDS011;58703;48.978;8.982;2024-03-22T11:47:06;3.70;;;2.45;;
71046;SDS011;58703;48.978;8.982;2024-03-22T11:49:32;3.42;;;2.75;;
71046;SDS011;58703;48.978;8.982;2024-03-22T11:51:58;3.17;;;2.13;;
71046;SDS011;58703;48.978;8.982;2024-03-22T11:54:23;4.17;;;2.33;;
71046;SDS011;58703;48.978;8.982;2024-03-22T11:56:49;3.88;;;2.70;;
71046;SDS011;58703;48.978;8.982;2024-03-22T11:59:15;3.17;;;2.80;;
71046;SDS011;58703;48.978;8.982;2024-03-22T12:01:45;10.57;;;3.20;;
71046;SDS011;58703;48.978;8.982;2024-03-22T12:04:11;3.63;;;2.63;;
71046;SDS011;58703;48.978;8.982;2024-03-22T12:06:43;4.57;;;2.90;;
71046;SDS011;58703;48.978;8.982;2024-03-22T12:09:10;4.00;;;2.60;;
71046;SDS011;58703;48.978;8.982;2024-03-22T12:11:37;4.68;;;2.10;;
71046;SDS011;58703;48.978;8.982;2024-03-22T12:14:03;4.22;;;1.63;;
71046;SDS011;58703;48.978;8.982;2024-03-22T12:16:29;4.57;;;2.10;;
71046;SDS011;58703;48.978;8.982;2024-03-22T12:18:55;4.37;;;2.70;;
71046;SDS011;58703;48.978;8.982;2024-03-22T12:21:20;5.33;;;2.43;;
71046;SDS011;58703;48.978;8.982;2024-03-22T12:23:46;3.17;;;2.00;;
71046;SDS011;58703;48.978;8.982;2024-03-22T12:26:11;2.73;;;1.70;;
71046;SDS011;58703;48.978;8.982;2024-03-22T12:28:37;4.33;;;2.03;;
71046;SDS011;58703;48.978;8.982;2024-03-22T12:31:03;3.63;;;1.85;;
71046;SDS011;58703;48.978;8.982;2024-03-22T12:33:29;4.43;;;2.20;;
71046;SDS011;58703;48.978;8.982;2024-03-22T12:35:55;3.13;;;1.50;;
71046;SDS011;58703;48.978;8.982;2024-03-22T12:38:20;4.77;;;2.30;;
71046;SDS011;58703;48.978;8.982;2024-03-22T12:40:46;2.58;;;1.90;;
71046;SDS011;58703;48.978;8.982;2024-03-22T12:43:12;4.57;;;2.37;;
71046;SDS011;58703;48.978;8.982;2024-03-22T12:45:37;3.03;;;1.87;;
71046;SDS011;58703;48.978;8.982;2024-03-22T12:48:03;3.47;;;1.73;;
71046;SDS011;58703;48.978;8.982;2024-03-22T12:50:29;2.85;;;1.98;;
71046;SDS011;58703;48.978;8.982;2024-03-22T12:52:55;4.35;;;1.95;;
71046;SDS011;58703;48.978;8.982;2024-03-22T12:55:21;3.80;;;2.00;;
71046;SDS011;58703;48.978;8.982;2024-03-22T12:57:47;2.93;;;1.90;;
71046;SDS011;58703;48.978;8.982;2024-03-22T13:00:12;3.00;;;1.70;;
71046;SDS011;58703;48.978;8.982;2024-03-22T13:02:40;3.17;;;1.60;;
71046;SDS011;58703;48.978;8.982;2024-03-22T13:05:06;3.33;;;1.33;;
71046;SDS011;58703;48.978;8.982;2024-03-22T13:07:32;2.47;;;1.40;;
71046;SDS011;58703;48.978;8.982;2024-03-22T13:09:57;3.43;;;1.20;;
71046;SDS011;58703;48.978;8.982;2024-03-22T13:12:25;1.13;;;1.02;;
71046;SDS011;58703;48.978;8.982;2024-03-22T13:14:51;0.93;;;0.90;;
71046;SDS011;58703;48.978;8.982;2024-03-22T13:17:17;2.70;;;1.25;;
71046;SDS011;58703;48.978;8.982;2024-03-22T13:19:43;1.67;;;0.90;;
71046;SDS011;58703;48.978;8.982;2024-03-22T13:22:09;1.40;;;0.90;;
71046;SDS011;58703;48.978;8.982;2024-03-22T13:24:34;1.37;;;0.80;;
71046;SDS011;58703;48.978;8.982;2024-03-22T13:27:00;5.05;;;1.02;;
71046;SDS011;58703;48.978;8.982;2024-03-22T13:29:28;1.80;;;1.00;;
71046;SDS011;58703;48.978;8.982;2024-03-22T13:31:53;1.60;;;1.13;;
71046;SDS011;58703;48.978;8.982;2024-03-22T13:34:19;3.23;;;0.90;;
71046;SDS011;58703;48.978;8.982;2024-03-22T13:36:45;1.73;;;1.20;;
71046;SDS011;58703;48.978;8.982;2024-03-22T13:39:10;3.97;;;1.33;;
71046;SDS011;58703;48.978;8.982;2024-03-22T13:41:36;1.53;;;1.30;;
71046;SDS011;58703;48.978;8.982;2024-03-22T13:44:01;1.70;;;1.20;;
71046;SDS011;58703;48.978;8.982;2024-03-22T13:46:28;5.22;;;1.27;;
71046;SDS011;58703;48.978;8.982;2024-03-22T13:48:54;2.75;;;1.05;;
71046;SDS011;58703;48.978;8.982;2024-03-22T13:51:21;1.87;;;1.17;;
71046;SDS011;58703;48.978;8.982;2024-03-22T13:53:46;2.17;;;1.25;;
71046;SDS011;58703;48.978;8.982;2024-03-22T13:56:12;1.43;;;1.33;;
71046;SDS011;58703;48.978;8.982;2024-03-22T13:58:37;3.63;;;1.30;;
71046;SDS011;58703;48.978;8.982;2024-03-22T14:01:03;2.08;;;1.10;;
71046;SDS011;58703;48.978;8.982;2024-03-22T14:03:28;1.97;;;0.73;;
71046;SDS011;58703;48.978;8.982;2024-03-22T14:05:54;2.05;;;0.98;;
71046;SDS011;58703;48.978;8.982;2024-03-22T14:08:20;2.90;;;1.30;;
71046;SDS011;58703;48.978;8.982;2024-03-22T14:10:46;1.85;;;1.10;;
71046;SDS011;58703;48.978;8.982;2024-03-22T14:13:11;2.70;;;1.37;;
71046;SDS011;58703;48.978;8.982;2024-03-22T14:15:37;2.45;;;1.58;;
71046;SDS011;58703;48.978;8.982;2024-03-22T14:18:04;3.22;;;1.80;;
71046;SDS011;58703;48.978;8.982;2024-03-22T14:20:30;5.30;;;1.37;;
71046;SDS011;58703;48.978;8.982;2024-03-22T14:22:56;1.75;;;1.50;;
71046;SDS011;58703;48.978;8.982;2024-03-22T14:25:21;2.20;;;1.90;;
71046;SDS011;58703;48.978;8.982;2024-03-22T14:27:47;2.07;;;1.47;;
71046;SDS011;58703;48.978;8.982;2024-03-22T14:30:14;2.72;;;1.75;;
71046;SDS011;58703;48.978;8.982;2024-03-22T14:32:40;2.45;;;1.70;;
71046;SDS011;58703;48.978;8.982;2024-03-22T14:35:06;2.08;;;1.35;;
71046;SDS011;58703;48.978;8.982;2024-03-22T14:37:32;1.75;;;1.38;;
71046;SDS011;58703;48.978;8.982;2024-03-22T14:39:58;2.43;;;1.70;;
71046;SDS011;58703;48.978;8.982;2024-03-22T14:42:24;3.00;;;1.77;;